Time;durP1;ratioP1;P1;durP2;ratioP2;P2;SDS_P1;SDS_P2;PMS_P1;PMS_P2;Temp;Humidity;BMP_temperature;BMP_pressure;BME280_temperature;BME280_humidity;BME280_pressure;Samples;Min_cycle;Max_cycle;Signal;HPM_P1;HPM_P2
2023/10/26 00:00:42;;;;;;;;;;;;;;;;;;5065913;28;20987;-55
2023/10/26 00:03:08;;;;;;;;;;;;;;;;;;5064289;28;19955;-55
2023/10/26 00:05:35;;;;;;;;;;;;;;;;;;5065871;28;19912;-55
2023/10/26 00:08:01;;;;;;;;;;;;;;;;;;5070895;28;19912;-55
2023/10/26 00:10:27;;;;;;;;;;;;;;;;;;5070652;28;19915;-55
2023/10/26 00:12:53;;;;;;;;;;;;;;;;;;5065972;28;20336;-55
2023/10/26 00:15:19;;;;;;;;;;;;;;;;;;5070696;28;19912;-55
2023/10/26 00:17:45;;;;;;;;;;;;;;;;;;5068679;28;19947;-55
2023/10/26 00:20:11;;;;;;;;;;;;;;;;;;5070497;28;19918;-55
2023/10/26 00:22:36;;;;;;;;;;;;;;;;;;5070461;28;19943;-55
2023/10/26 00:25:03;;;;;;;;;;;;;;;;;;5063080;28;19948;-55
2023/10/26 00:27:29;;;;;;;;;;;;;;;;;;5067999;28;20396;-55
2023/10/26 00:29:54;;;;;;;;;;;;;;;;;;5071106;28;19956;-55
2023/10/26 00:32:20;;;;;;;;;;;;;;;;;;5069442;28;20446;-55
2023/10/26 00:34:46;;;;;;;;;;;;;;;;;;5067726;28;19994;-55
2023/10/26 00:37:12;;;;;;;;;;;;;;;;;;5069675;28;20401;-55
2023/10/26 00:39:38;;;;;;;;;;;;;;;;;;5071035;28;19934;-54
2023/10/26 00:42:04;;;;;;;;;;;;;;;;;;5070519;28;19959;-54
2023/10/26 00:44:30;;;;;;;;;;;;;;;;;;5071023;28;19940;-54
2023/10/26 00:46:56;;;;;;;;;;;;;;;;;;5069155;28;20376;-54
2023/10/26 00:49:22;;;;;;;;;;;;;;;;;;5069162;28;20013;-54
2023/10/26 00:51:48;;;;;;;;;;;;;;;;;;5069026;28;19923;-53
2023/10/26 00:54:14;;;;;;;;;;;;;;;;;;5069945;28;19916;-53
2023/10/26 00:56:41;;;;;;;;;;;;;;;;;;5069208;28;19913;-54
2023/10/26 00:59:07;;;;;;;;;;;;;;;;;;5070128;28;20423;-54
2023/10/26 01:01:34;;;;;;;;;;;;;;;;;;5068699;28;19912;-54
2023/10/26 01:04:03;;;;;;;;;;;;;;;;;;5069922;28;20072;-54
2023/10/26 01:06:29;;;;;;;;;;;;;;;;;;5068441;28;20011;-54
2023/10/26 01:08:55;;;;;;;;;;;;;;;;;;5069498;28;19916;-54
2023/10/26 01:11:21;;;;;;;;;;;;;;;;;;5070974;28;20668;-54
2023/10/26 01:13:48;;;;;;;;;;;;;;;;;;5068807;28;19916;-53
2023/10/26 01:16:13;;;;;;;;;;;;;;;;;;5066628;28;20344;-54
2023/10/26 01:18:39;;;;;;;;;;;;;;;;;;5069095;28;19919;-53
2023/10/26 01:21:05;;;;;;;;;;;;;;;;;;5068650;28;20008;-54
2023/10/26 01:23:31;;;;;;;;;;;;;;;;;;5068953;28;20347;-54
2023/10/26 01:25:58;;;;;;;;;;;;;;;;;;5067129;28;19988;-54
2023/10/26 01:28:25;;;;;;;;;;;;;;;;;;5069130;28;19939;-54
2023/10/26 01:30:52;;;;;;;;;;;;;;;;;;5068352;28;19935;-54
2023/10/26 01:33:18;;;;;;;;;;;;;;;;;;5067960;28;19917;-53
2023/10/26 01:35:45;;;;;;;;;;;;;;;;;;5068204;28;20019;-53
2023/10/26 01:38:11;;;;;;;;;;;;;;;;;;5068235;28;19908;-54
2023/10/26 01:40:37;;;;;;;;;;;;;;;;;;5066281;28;19948;-54
2023/10/26 01:43:03;;;;;;;;;;;;;;;;;;5068714;28;19951;-53
2023/10/26 01:45:29;;;;;;;;;;;;;;;;;;5068880;28;19963;-54
2023/10/26 01:47:55;;;;;;;;;;;;;;;;;;5067768;28;19908;-56
2023/10/26 01:50:21;;;;;;;;;;;;;;;;;;5067405;28;19916;-56
2023/10/26 01:52:47;;;;;;;;;;;;;;;;;;5067766;28;19962;-55
2023/10/26 01:55:13;;;;;;;;;;;;;;;;;;5068702;28;19975;-55
2023/10/26 01:57:39;;;;;;;;;;;;;;;;;;5067249;28;19943;-54
2023/10/26 02:00:05;;;;;;;;;;;;;;;;;;5062222;28;19974;-55
2023/10/26 02:02:31;;;;;;;;;;;;;;;;;;5067332;28;19950;-55
2023/10/26 02:04:57;;;;;;;;;;;;;;;;;;5068431;28;20358;-55
2023/10/26 02:07:23;;;;;;;;;;;;;;;;;;5067239;28;19916;-55
2023/10/26 02:09:52;;;;;;;;;;;;;;;;;;5069225;28;20016;-55
2023/10/26 02:12:18;;;;;;;;;;;;;;;;;;5061729;28;19913;-55
2023/10/26 02:14:44;;;;;;;;;;;;;;;;;;5069035;28;20345;-55
2023/10/26 02:17:10;;;;;;;;;;;;;;;;;;5067060;28;19909;-55
2023/10/26 02:19:36;;;;;;;;;;;;;;;;;;5068679;28;19987;-55
2023/10/26 02:22:02;;;;;;;;;;;;;;;;;;5067520;28;19915;-55
2023/10/26 02:24:28;;;;;;;;;;;;;;;;;;5068024;28;19959;-55
2023/10/26 02:26:57;;;;;;;;;;;;;;;;;;5067908;28;19943;-56
2023/10/26 02:29:23;;;;;;;;;;;;;;;;;;5067294;28;19936;-55
2023/10/26 02:31:49;;;;;;;;;;;;;;;;;;5065842;28;19923;-55
2023/10/26 02:34:15;;;;;;;;;;;;;;;;;;5059939;28;19947;-55
2023/10/26 02:36:41;;;;;;;;;;;;;;;;;;5066546;28;19909;-55
2023/10/26 02:39:07;;;;;;;;;;;;;;;;;;5068468;28;19919;-55
2023/10/26 02:41:33;;;;;;;;;;;;;;;;;;5067240;28;20387;-55
2023/10/26 02:43:59;;;;;;;;;;;;;;;;;;5068555;28;19955;-55
2023/10/26 02:46:25;;;;;;;;;;;;;;;;;;5063725;28;19939;-55
2023/10/26 02:48:51;;;;;;;;;;;;;;;;;;5067926;28;19967;-55
2023/10/26 02:51:17;;;;;;;;;;;;;;;;;;5067651;28;20332;-55
2023/10/26 02:53:43;;;;;;;;;;;;;;;;;;5067474;28;19930;-55
2023/10/26 02:56:09;;;;;;;;;;;;;;;;;;5067747;28;19912;-55
2023/10/26 02:58:35;;;;;;;;;;;;;;;;;;5067381;28;19912;-54
2023/10/26 03:01:03;;;;;;;;;;;;;;;;;;5066939;28;19940;-54
2023/10/26 03:03:29;;;;;;;;;;;;;;;;;;5066801;28;19958;-54
2023/10/26 03:05:55;;;;;;;;;;;;;;;;;;5068478;28;19912;-54
2023/10/26 03:08:21;;;;;;;;;;;;;;;;;;5067068;28;19919;-54
2023/10/26 03:10:47;;;;;;;;;;;;;;;;;;5068571;28;19947;-53
2023/10/26 03:13:13;;;;;;;;;;;;;;;;;;5066046;28;20291;-54
2023/10/26 03:15:39;;;;;;;;;;;;;;;;;;5067306;28;20331;-54
2023/10/26 03:18:06;;;;;;;;;;;;;;;;;;5066718;28;19920;-54
2023/10/26 03:20:32;;;;;;;;;;;;;;;;;;5066886;28;20654;-53
2023/10/26 03:22:59;;;;;;;;;;;;;;;;;;5067078;28;19922;-53
2023/10/26 03:25:25;;;;;;;;;;;;;;;;;;5066801;28;20348;-54
2023/10/26 03:27:50;;;;;;;;;;;;;;;;;;5066905;28;19967;-54
2023/10/26 03:30:17;;;;;;;;;;;;;;;;;;5066082;28;20057;-54
2023/10/26 03:32:44;;;;;;;;;;;;;;;;;;5064375;28;19920;-54
2023/10/26 03:35:10;;;;;;;;;;;;;;;;;;5067353;28;19916;-54
2023/10/26 03:37:39;;;;;;;;;;;;;;;;;;5065848;28;19909;-53
2023/10/26 03:40:05;;;;;;;;;;;;;;;;;;5066796;28;19912;-54
2023/10/26 03:42:31;;;;;;;;;;;;;;;;;;5070948;28;19966;-54
2023/10/26 03:44:57;;;;;;;;;;;;;;;;;;5072427;28;19958;-54
2023/10/26 03:47:23;;;;;;;;;;;;;;;;;;5069954;28;19922;-54
2023/10/26 03:49:52;;;;;;;;;;;;;;;;;;5071255;28;20002;-54
2023/10/26 03:52:18;;;;;;;;;;;;;;;;;;5072729;28;19916;-59
2023/10/26 03:54:44;;;;;;;;;;;;;;;;;;5064769;28;19916;-54
2023/10/26 03:57:10;;;;;;;;;;;;;;;;;;5070474;28;20447;-53
2023/10/26 03:59:36;;;;;;;;;;;;;;;;;;5069632;28;19955;-54
2023/10/26 04:02:02;;;;;;;;;;;;;;;;;;5070249;28;19931;-55
2023/10/26 04:04:29;;;;;;;;;;;;;;;;;;5070725;28;19908;-54
2023/10/26 04:06:55;;;;;;;;;;;;;;;;;;5069816;28;19912;-54
2023/10/26 04:09:21;;;;;;;;;;;;;;;;;;5070822;28;20368;-54
2023/10/26 04:11:47;;;;;;;;;;;;;;;;;;5070149;28;19957;-54
2023/10/26 04:14:13;;;;;;;;;;;;;;;;;;5069890;28;20265;-54
2023/10/26 04:16:39;;;;;;;;;;;;;;;;;;5069433;28;20676;-54
2023/10/26 04:19:06;;;;;;;;;;;;;;;;;;5070889;28;19947;-54
2023/10/26 04:21:33;;;;;;;;;;;;;;;;;;5068858;28;20313;-53
2023/10/26 04:23:59;;;;;;;;;;;;;;;;;;5070457;28;20038;-53
2023/10/26 04:26:26;;;;;;;;;;;;;;;;;;5072851;28;19947;-53
2023/10/26 04:28:52;;;;;;;;;;;;;;;;;;5067910;28;19919;-55
2023/10/26 04:31:18;;;;;;;;;;;;;;;;;;5069752;28;19925;-55
2023/10/26 04:33:43;;;;;;;;;;;;;;;;;;5070838;28;19943;-54
2023/10/26 04:36:09;;;;;;;;;;;;;;;;;;5069795;28;20471;-55
2023/10/26 04:38:37;;;;;;;;;;;;;;;;;;5068907;28;19918;-55
2023/10/26 04:41:03;;;;;;;;;;;;;;;;;;5068942;28;20050;-54
2023/10/26 04:43:29;;;;;;;;;;;;;;;;;;5069511;28;19909;-56
2023/10/26 04:45:55;;;;;;;;;;;;;;;;;;5067091;28;19919;-54
2023/10/26 04:48:21;;;;;;;;;;;;;;;;;;5068054;28;19963;-55
2023/10/26 04:50:47;;;;;;;18.60;16.60;;;;;;;;;;5066089;28;19972;-55
2023/10/26 04:53:16;;;;;;;17.50;15.60;;;;;;;;;;5066483;28;20191;-54
2023/10/26 04:55:42;;;;;;;18.37;16.27;;;;;;;;;;5068124;28;20689;-54
2023/10/26 04:58:08;;;;;;;18.23;14.10;;;;;;;;;;5067360;28;20685;-54
2023/10/26 05:00:35;;;;;;;17.10;15.30;;;;;;;;;;5069549;28;20178;-55
2023/10/26 05:03:02;;;;;;;16.83;14.27;;;;;;;;;;5067065;28;20172;-55
2023/10/26 05:05:28;;;;;;;17.93;15.83;;;;;;;;;;5062939;28;20172;-55
2023/10/26 05:07:54;;;;;;;18.07;16.20;;;;;;;;;;5066934;28;20582;-56
2023/10/26 05:10:20;;;;;;;17.73;15.80;;;;;;;;;;5069115;28;20338;-55
2023/10/26 05:12:46;;;;;;;16.53;14.83;;;;;;;;;;5067579;28;20196;-55
2023/10/26 05:15:13;;;;;;;17.00;15.27;;;;;;;;;;5068274;28;20180;-54
2023/10/26 05:17:39;;;;;;;14.53;13.07;;;;;;;;;;5066732;28;20173;-54
2023/10/26 05:20:06;;;;;;;15.23;13.60;;;;;;;;;;5066538;28;20184;-54
2023/10/26 05:22:32;;;;;;;15.10;12.97;;;;;;;;;;5065532;28;20298;-54
2023/10/26 05:25:04;;;;;;;14.10;11.63;;;;;;;;;;5067994;28;20184;-54
2023/10/26 05:27:33;;;;;;;14.73;12.70;;;;;;;;;;5062936;28;20208;-55
2023/10/26 05:29:59;;;;;;;12.47;11.23;;;;;;;;;;5067987;28;20235;-56
2023/10/26 05:32:26;;;;;;;13.27;11.90;;;;;;;;;;5065660;28;20243;-56
2023/10/26 05:34:52;;;;;;;;;;;;;;;;;;5068180;28;20118;-56
2023/10/26 05:37:18;;;;;;;;;;;;;;;;;;5064118;28;19916;-58
2023/10/26 05:39:44;;;;;;;;;;;;;;;;;;5067383;28;19939;-58
2023/10/26 05:42:10;;;;;;;;;;;;;;;;;;5069597;28;19993;-57
2023/10/26 05:44:36;;;;;;;;;;;;;;;;;;5062568;28;20328;-55
2023/10/26 05:47:02;;;;;;;;;;;;;;;;;;5064117;28;19920;-55
2023/10/26 05:49:28;;;;;;;;;;;;;;;;;;5071275;28;19912;-55
2023/10/26 05:51:57;;;;;;;;;;;;;;;;;;5069303;28;19973;-55
2023/10/26 05:54:23;;;;;;;;;;;;;;;;;;5070484;28;20245;-55
2023/10/26 05:56:49;;;;;;;;;;;;;;;;;;5068388;28;19951;-55
2023/10/26 05:59:14;;;;;;;;;;;;;;;;;;5072647;28;20001;-56
2023/10/26 06:01:40;;;;;;;;;;;;;;;;;;5072146;28;20443;-56
2023/10/26 06:04:07;;;;;;;;;;;;;;;;;;5068216;28;20273;-56
2023/10/26 06:06:33;;;;;;;;;;;;;;;;;;5075162;28;20314;-56
2023/10/26 06:08:59;;;;;;;;;;;;;;;;;;5070373;28;19916;-56
2023/10/26 06:11:25;;;;;;;;;;;;;;;;;;5069350;28;20295;-56
2023/10/26 06:13:51;;;;;;;;;;;;;;;;;;5069803;28;20391;-56
2023/10/26 06:16:17;;;;;;;;;;;;;;;;;;5068179;28;19913;-56
2023/10/26 06:18:43;;;;;;;;;;;;;;;;;;5069509;28;20253;-56
2023/10/26 06:21:09;;;;;;;;;;;;;;;;;;5065388;28;20001;-56
2023/10/26 06:23:35;;;;;;;;;;;;;;;;;;5069803;28;19934;-55
2023/10/26 06:26:01;;;;;;;;;;;;;;;;;;5068445;28;19934;-57
2023/10/26 06:28:27;;;;;;;;;;;;;;;;;;5066842;28;19956;-56
2023/10/26 06:30:53;;;;;;;;;;;;;;;;;;5064602;28;19935;-55
2023/10/26 06:33:19;;;;;;;;;;;;;;;;;;5067046;28;20030;-56
2023/10/26 06:35:46;;;;;;;;;;;;;;;;;;5068785;28;20332;-55
2023/10/26 06:38:12;;;;;;;;;;;;;;;;;;5069022;28;19912;-56
2023/10/26 06:40:38;;;;;;;;;;;;;;;;;;5069311;28;20346;-55
2023/10/26 06:43:04;;;;;;;;;;;;;;;;;;5048376;28;19936;-56
2023/10/26 06:45:30;;;;;;;;;;;;;;;;;;5068845;28;19938;-56
2023/10/26 06:47:56;;;;;;;;;;;;;;;;;;5068623;28;20371;-56
2023/10/26 06:50:23;;;;;;;;;;;;;;;;;;5068295;28;19916;-56
2023/10/26 06:52:49;;;;;;;;;;;;;;;;;;5068874;28;19912;-56
2023/10/26 06:55:16;;;;;;;;;;;;;;;;;;5067829;28;19916;-56
2023/10/26 06:57:42;;;;;;;;;;;;;;;;;;5068867;28;19967;-56
2023/10/26 07:00:08;;;;;;;;;;;;;;;;;;5068642;28;20314;-56
2023/10/26 07:02:34;;;;;;;;;;;;;;;;;;5067690;28;19909;-56
2023/10/26 07:05:00;;;;;;;;;;;;;;;;;;5068519;28;20027;-56
2023/10/26 07:07:27;;;;;;;;;;;;;;;;;;5067845;28;19912;-56
2023/10/26 07:09:53;;;;;;;;;;;;;;;;;;5068153;28;19916;-56
2023/10/26 07:12:19;;;;;;;;;;;;;;;;;;5068411;28;20287;-56
2023/10/26 07:14:45;;;;;;;;;;;;;;;;;;5068596;28;20026;-56
2023/10/26 07:17:11;;;;;;;;;;;;;;;;;;5067471;28;19923;-56
2023/10/26 07:19:38;;;;;;;;;;;;;;;;;;5068906;28;19962;-56
2023/10/26 07:22:04;;;;;;;;;;;;;;;;;;5067749;28;20020;-55
2023/10/26 07:24:30;;;;;;;;;;;;;;;;;;5068469;28;19934;-55
2023/10/26 07:26:59;;;;;;;;;;;;;;;;;;5068284;28;19940;-55
2023/10/26 07:29:25;;;;;;;;;;;;;;;;;;5068824;28;20355;-56
2023/10/26 07:31:51;;;;;;;;;;;;;;;;;;5066626;28;19932;-55
2023/10/26 07:34:17;;;;;;;;;;;;;;;;;;5068348;28;20003;-55
2023/10/26 07:36:43;;;;;;;;;;;;;;;;;;5066823;28;20425;-55
2023/10/26 07:39:10;;;;;;;;;;;;;;;;;;5068425;28;19932;-56
2023/10/26 07:41:36;;;;;;;;;;;;;;;;;;5063499;28;19908;-55
2023/10/26 07:44:02;;;;;;;;;;;;;;;;;;5067627;28;20302;-55
2023/10/26 07:46:28;;;;;;;;;;;;;;;;;;5072620;28;19965;-55
2023/10/26 07:48:54;;;;;;;;;;;;;;;;;;5063145;28;19920;-55
2023/10/26 07:51:21;;;;;;;;;;;;;;;;;;5067025;28;20368;-55
2023/10/26 07:53:47;;;;;;;;;;;;;;;;;;5066418;28;19919;-55
2023/10/26 07:56:13;;;;;;;;;;;;;;;;;;5067286;28;19919;-55
2023/10/26 07:58:39;;;;;;;;;;;;;;;;;;5067851;28;19948;-55
2023/10/26 08:01:05;;;;;;;;;;;;;;;;;;5082646;28;20308;-55
2023/10/26 08:03:31;;;;;;;;;;;;;;;;;;5067797;28;19908;-55
2023/10/26 08:06:00;;;;;;;;;;;;;;;;;;5082697;28;20129;-55
2023/10/26 08:08:26;;;;;;;;;;;;;;;;;;5068090;28;19909;-55
2023/10/26 08:10:52;;;;;;;;;;;;;;;;;;5067952;28;19940;-56
2023/10/26 08:13:18;;;;;;;;;;;;;;;;;;5066906;28;20443;-55
2023/10/26 08:15:44;;;;;;;;;;;;;;;;;;5068141;28;20011;-55
2023/10/26 08:18:12;;;;;;;;;;;;;;;;;;5067031;28;19917;-55
2023/10/26 08:20:38;;;;;;;;;;;;;;;;;;5067506;28;19908;-54
2023/10/26 08:23:04;;;;;;;;;;;;;;;;;;5067541;28;20330;-54
2023/10/26 08:25:30;;;;;;;;;;;;;;;;;;5083112;28;20382;-55
2023/10/26 08:27:56;;;;;;;;;;;;;;;;;;5067563;28;20003;-55
2023/10/26 08:30:22;;;;;;;;;;;;;;;;;;5067942;28;19916;-56
2023/10/26 08:32:53;;;;;;;;;;;;;;;;;;5070707;28;19935;-55
2023/10/26 08:35:19;;;;;;;;;;;;;;;;;;5069860;28;19918;-56
2023/10/26 08:37:45;;;;;;;;;;;;;;;;;;5076369;28;20371;-56
2023/10/26 08:40:12;;;;;;;;;;;;;;;;;;5074512;28;20273;-55
2023/10/26 08:42:38;;;;;;;;;;;;;;;;;;5071684;28;20291;-56
2023/10/26 08:45:04;;;;;;;;;;;;;;;;;;5069507;28;19916;-55
2023/10/26 08:47:30;;;;;;;;;;;;;;;;;;5070472;28;19947;-55
2023/10/26 08:49:58;;;;;;;;;;;;;;;;;;5060878;28;19917;-56
2023/10/26 08:52:24;;;;;;;;;;;;;;;;;;5073214;28;19923;-56
2023/10/26 08:54:50;;;;;;;;;;;;;;;;;;5078592;28;20393;-56
2023/10/26 08:57:16;;;;;;;;;;;;;;;;;;5070859;28;19908;-56
2023/10/26 08:59:42;;;;;;;;;;;;;;;;;;5062918;28;20371;-54
2023/10/26 09:02:09;;;;;;;;;;;;;;;;;;5069367;28;19962;-54
2023/10/26 09:04:35;;;;;;;;;;;;;;;;;;5063698;28;19940;-54
2023/10/26 09:07:01;;;;;;;;;;;;;;;;;;5070673;28;19992;-54
2023/10/26 09:09:27;;;;;;;;;;;;;;;;;;5071007;28;19957;-54
2023/10/26 09:11:54;;;;;;;;;;;;;;;;;;5069996;28;19908;-54
2023/10/26 09:14:20;;;;;;;;;;;;;;;;;;5070983;28;19912;-54
2023/10/26 09:16:47;;;;;;;;;;;;;;;;;;5069978;28;19908;-54
2023/10/26 09:19:13;;;;;;;;;;;;;;;;;;5070628;28;19916;-55
2023/10/26 09:21:39;;;;;;;;;;;;;;;;;;5069507;28;19912;-53
2023/10/26 09:24:05;;;;;;;;;;;;;;;;;;5071059;28;19908;-54
2023/10/26 09:26:31;;;;;;;;;;;;;;;;;;5069076;28;19913;-53
2023/10/26 09:28:57;;;;;;;;;;;;;;;;;;5069080;28;20329;-54
2023/10/26 09:31:23;;;;;;;;;;;;;;;;;;5069125;28;20308;-54
2023/10/26 09:33:49;;;;;;;;;;;;;;;;;;5070679;28;19909;-54
2023/10/26 09:36:15;;;;;;;;;;;;;;;;;;5069319;28;19912;-54
2023/10/26 09:38:41;;;;;;;;;;;;;;;;;;5070047;28;19947;-53
2023/10/26 09:41:09;;;;;;;;;;;;;;;;;;5070019;28;19984;-53
2023/10/26 09:43:35;;;;;;;;;;;;;;;;;;5070761;28;19999;-53
2023/10/26 09:46:01;;;;;;;;;;;;;;;;;;5069381;28;19999;-53
2023/10/26 09:48:28;;;;;;;;;;;;;;;;;;5068102;28;20003;-53
2023/10/26 09:51:00;;;;;;;;;;;;;;;;;;5068954;28;20368;-53
2023/10/26 09:53:26;;;;;;;;;;;;;;;;;;5064204;28;19943;-53
2023/10/26 09:55:52;;;;;;;;;;;;;;;;;;5069514;28;19909;-53
2023/10/26 09:58:18;;;;;;;;;;;;;;;;;;5070213;28;19904;-53
2023/10/26 10:00:44;;;;;;;;;;;;;;;;;;5069622;28;20438;-53
2023/10/26 10:03:11;;;;;;;;;;;;;;;;;;5063730;28;19929;-53
2023/10/26 10:05:40;;;;;;;;;;;;;;;;;;5069414;28;20312;-53
2023/10/26 10:08:06;;;;;;;;;;;;;;;;;;5070163;28;19958;-53
2023/10/26 10:10:32;;;;;;;;;;;;;;;;;;5069613;28;19913;-53
2023/10/26 10:12:58;;;;;;;;;;;;;;;;;;5069527;28;19931;-53
2023/10/26 10:15:24;;;;;;;;;;;;;;;;;;5069392;28;19936;-53
2023/10/26 10:17:51;;;;;;;;;;;;;;;;;;5068897;28;20002;-54
2023/10/26 10:20:17;;;;;;;;;;;;;;;;;;5069445;28;19916;-53
2023/10/26 10:22:43;;;;;;;;;;;;;;;;;;5059266;28;20353;-53
2023/10/26 10:25:10;;;;;;;;;;;;;;;;;;5049690;28;19908;-53
2023/10/26 10:27:36;;;;;;;;;;;;;;;;;;5081120;28;20006;-53
2023/10/26 10:30:02;;;;;;;;;;;;;;;;;;5068991;28;20018;-53
2023/10/26 10:32:28;;;;;;;;;;;;;;;;;;5058925;28;19926;-53
2023/10/26 10:34:54;;;;;;;;;;;;;;;;;;5065230;28;20331;-53
2023/10/26 10:37:23;;;;;;;;;;;;;;;;;;5066841;28;19961;-53
2023/10/26 10:39:49;;;;;;;;;;;;;;;;;;5063503;28;19909;-54
2023/10/26 10:42:15;;;;;;;;;;;;;;;;;;5062748;28;19916;-53
2023/10/26 10:44:42;;;;;;;;;;;;;;;;;;5064620;28;19916;-53
2023/10/26 10:47:08;;;;;;;;;;;;;;;;;;5066162;28;20374;-54
2023/10/26 10:49:34;;;;;;;;;;;;;;;;;;5064400;28;20351;-54
2023/10/26 10:52:00;;;;;;;;;;;;;;;;;;5064013;28;19954;-53
2023/10/26 10:54:26;;;;;;;;;;;;;;;;;;5065886;28;19916;-53
2023/10/26 10:56:52;;;;;;;;;;;;;;;;;;5080644;28;19912;-53
2023/10/26 10:59:18;;;;;;;;;;;;;;;;;;5069218;28;19931;-53
2023/10/26 11:01:44;;;;;;;;;;;;;;;;;;5068988;28;20006;-53
2023/10/26 11:04:13;;;;;;;;;;;;;;;;;;5068215;28;19935;-54
2023/10/26 11:06:39;;;;;;;;;;;;;;;;;;5083263;28;19971;-54
2023/10/26 11:09:05;;;;;;;;;;;;;;;;;;5068752;28;19940;-53
2023/10/26 11:11:33;;;;;;;;;;;;;;;;;;5068200;28;19915;-53
2023/10/26 11:13:59;;;;;;;;;;;;;;;;;;5067868;28;19904;-53
2023/10/26 11:16:25;;;;;;;;;;;;;;;;;;5067382;28;20414;-54
2023/10/26 11:18:51;;;;;;;;;;;;;;;;;;5072768;28;20265;-53
2023/10/26 11:21:17;;;;;;;;;;;;;;;;;;5069275;28;20003;-52
2023/10/26 11:23:43;;;;;;;;;;;;;;;;;;5068504;28;19995;-53
2023/10/26 11:26:09;;;;;;;;;;;;;;;;;;5068654;28;19924;-53
2023/10/26 11:28:35;;;;;;;;;;;;;;;;;;5066410;28;19930;-53
2023/10/26 11:31:01;;;;;;;;;;;;;;;;;;5067797;28;20394;-53
2023/10/26 11:33:27;;;;;;;;;;;;;;;;;;5067762;28;19912;-53
2023/10/26 11:35:53;;;;;;;;;;;;;;;;;;5068030;28;19904;-53
2023/10/26 11:38:19;;;;;;;;;;;;;;;;;;5068012;28;19962;-53
2023/10/26 11:40:46;;;;;;;;;;;;;;;;;;5068834;28;20035;-53
2023/10/26 11:43:12;;;;;;;;;;;;;;;;;;5067811;28;19912;-53
2023/10/26 11:45:38;;;;;;;;;;;;;;;;;;5068605;28;20245;-53
2023/10/26 11:48:04;;;;;;;;;;;;;;;;;;5068116;28;19947;-53
2023/10/26 11:50:30;;;;;;;;;;;;;;;;;;5067554;28;19999;-53
2023/10/26 11:52:56;;;;;;;;;;;;;;;;;;5067878;28;19908;-52
2023/10/26 11:55:22;;;;;;;;;;;;;;;;;;5067207;28;19965;-52
2023/10/26 11:57:49;;;;;;;;;;;;;;;;;;5067537;28;19915;-53
2023/10/26 12:00:15;;;;;;;;;;;;;;;;;;5068010;28;19916;-53
2023/10/26 12:02:42;;;;;;;;;;;;;;;;;;5071009;28;19966;-53
2023/10/26 12:05:11;;;;;;;;;;;;;;;;;;5072194;28;20423;-56
2023/10/26 12:07:37;;;;;;;;;;;;;;;;;;5070284;28;20413;-53
2023/10/26 12:10:03;;;;;;;;;;;;;;;;;;5070780;28;19912;-53
2023/10/26 12:12:29;;;;;;;;;;;;;;;;;;5071618;28;19912;-52
2023/10/26 12:14:55;;;;;;;;;;;;;;;;;;5072054;28;20464;-53
2023/10/26 12:17:22;;;;;;;;;;;;;;;;;;5070777;28;19913;-53
2023/10/26 12:19:48;;;;;;;;;;;;;;;;;;5071072;28;19908;-52
2023/10/26 12:22:14;;;;;;;;;;;;;;;;;;5071558;28;19908;-53
2023/10/26 12:24:40;;;;;;;;;;;;;;;;;;5072374;28;19908;-52
2023/10/26 12:27:06;;;;;;;;;;;;;;;;;;5069039;28;20003;-55
2023/10/26 12:29:33;;;;;;;;;;;;;;;;;;5062633;28;19923;-53
2023/10/26 12:31:59;;;;;;;;;;;;;;;;;;5065704;28;19916;-56
2023/10/26 12:34:25;;;;;;;;;;;;;;;;;;5071767;28;19955;-55
2023/10/26 12:36:51;;;;;;;;;;;;;;;;;;5070702;28;19909;-55
2023/10/26 12:39:18;;;;;;;;;;;;;;;;;;5071918;28;19924;-55
2023/10/26 12:41:44;;;;;;;;;;;;;;;;;;5071190;28;19913;-56
2023/10/26 12:44:12;;;;;;;;;;;;;;;;;;5071419;28;19942;-55
2023/10/26 12:46:38;;;;;;;;;;;;;;;;;;5058510;28;20312;-55
2023/10/26 12:49:04;;;;;;;;;;;;;;;;;;5071515;28;19916;-55
2023/10/26 12:51:30;;;;;;;;;;;;;;;;;;5070511;28;19938;-55
2023/10/26 12:53:57;;;;;;;;;;;;;;;;;;5071039;28;20018;-55
2023/10/26 12:56:23;;;;;;;;;;;;;;;;;;5071297;28;19919;-55
2023/10/26 12:58:49;;;;;;;;;;;;;;;;;;5071028;28;19908;-54
2023/10/26 13:01:15;;;;;;;;;;;;;;;;;;5070606;28;20005;-55
2023/10/26 13:03:44;;;;;;;;;;;;;;;;;;5069586;28;19920;-55
2023/10/26 13:06:10;;;;;;;;;;;;;;;;;;5070887;28;19908;-56
2023/10/26 13:08:36;;;;;;;;;;;;;;;;;;5063410;28;19919;-54
2023/10/26 13:11:03;;;;;;;;;;;;;;;;;;5062484;28;20332;-56
2023/10/26 13:13:29;;;;;;;;;;;;;;;;;;5070099;28;19912;-55
2023/10/26 13:15:55;;;;;;;;;;;;;;;;;;5070736;28;19923;-54
2023/10/26 13:18:21;;;;;;;;;;;;;;;;;;5069029;28;19961;-54
2023/10/26 13:20:47;;;;;;;;;;;;;;;;;;5081447;28;19920;-55
2023/10/26 13:23:13;;;;;;;;;;;;;;;;;;5070891;28;20238;-56
2023/10/26 13:25:39;;;;;;;;;;;;;;;;;;5070060;28;20303;-55
2023/10/26 13:28:05;;;;;;;;;;;;;;;;;;5068770;28;19919;-55
2023/10/26 13:30:31;;;;;;;;;;;;;;;;;;5068919;28;19920;-55
2023/10/26 13:32:58;;;;;;;;;;;;;;;;;;5068134;28;20220;-56
2023/10/26 13:35:24;;;;;;;;;;;;;;;;;;5069940;28;20159;-56
2023/10/26 13:37:50;;;;;;;;;;;;;;;;;;5069870;28;19916;-55
2023/10/26 13:40:16;;;;;;;;;;;;;;;;;;5068062;28;20285;-56
2023/10/26 13:42:42;;;;;;;;;;;;;;;;;;5066243;28;19961;-53
2023/10/26 13:45:08;;;;;;;;;;;;;;;;;;5069742;28;19915;-53
2023/10/26 13:47:34;;;;;;;;;;;;;;;;;;5068275;28;19951;-53
2023/10/26 13:50:00;;;;;;;;;;;;;;;;;;5070169;28;20015;-53
2023/10/26 13:52:28;;;;;;;;;;;;;;;;;;5069689;28;20015;-53
2023/10/26 13:54:54;;;;;;;;;;;;;;;;;;5067923;28;19916;-52
2023/10/26 13:57:21;;;;;;;;;;;;;;;;;;5068414;28;19996;-55
2023/10/26 13:59:47;;;;;;;;;;;;;;;;;;5065102;28;19913;-56
2023/10/26 14:02:13;;;;;;;;;;;;;;;;;;5072814;28;20419;-53
2023/10/26 14:04:39;;;;;;;;;;;;;;;;;;5057711;28;19912;-53
2023/10/26 14:07:06;;;;;;;;;;;;;;;;;;5061205;28;20390;-54
2023/10/26 14:09:32;;;;;;;;;;;;;;;;;;5069048;28;20439;-53
2023/10/26 14:12:01;;;;;;;;;;;;;;;;;;5067129;28;19999;-54
2023/10/26 14:14:28;;;;;;;;;;;;;;;;;;5067270;28;19909;-54
2023/10/26 14:16:54;;;;;;;;;;;;;;;;;;5067045;28;19917;-54
2023/10/26 14:19:20;;;;;;;;;;;;;;;;;;5067224;28;19975;-55
2023/10/26 14:21:47;;;;;;;;;;;;;;;;;;5067651;28;19908;-54
2023/10/26 14:24:13;;;;;;;;;;;;;;;;;;5066934;28;19961;-54
2023/10/26 14:26:39;;;;;;;;;;;;;;;;;;5068803;28;19913;-54
2023/10/26 14:29:05;;;;;;;;;;;;;;;;;;5069863;28;20372;-54
2023/10/26 14:31:31;;;;;;;;;;;;;;;;;;5068287;28;19927;-54
2023/10/26 14:33:57;;;;;;;;;;;;;;;;;;5068877;28;19915;-55
2023/10/26 14:36:23;;;;;;;;;;;;;;;;;;5067638;28;19912;-54
2023/10/26 14:38:49;;;;;;;;;;;;;;;;;;5072649;28;19977;-54
2023/10/26 14:41:15;;;;;;;;;;;;;;;;;;5069991;28;20352;-54
2023/10/26 14:43:41;;;;;;;;;;;;;;;;;;5069032;28;19908;-55
2023/10/26 14:46:09;;;;;;;;;;;;;;;;;;5066859;28;19939;-54
2023/10/26 14:48:34;;;;;;;;;;;;;;;;;;5070058;28;19923;-54
2023/10/26 14:51:01;;;;;;;;;;;;;;;;;;5068099;28;20348;-56
2023/10/26 14:53:27;;;;;;;;;;;;;;;;;;5066510;28;20272;-56
2023/10/26 14:55:53;;;;;;;;;;;;;;;;;;5066706;28;19920;-56
2023/10/26 14:58:19;;;;;;;;;;;;;;;;;;5065354;28;19931;-56
2023/10/26 15:00:45;;;;;;;;;;;;;;;;;;5068248;28;20405;-56
2023/10/26 15:03:11;;;;;;;;;;;;;;;;;;5065308;28;19939;-56
2023/10/26 15:05:37;;;;;;;;;;;;;;;;;;5068436;28;19905;-56
2023/10/26 15:08:03;;;;;;;;;;;;;;;;;;5067461;28;19908;-56
2023/10/26 15:10:29;;;;;;;;;;;;;;;;;;5063994;28;20279;-56
2023/10/26 15:12:56;;;;;;;;;;;;;;;;;;5065913;28;19950;-56
2023/10/26 15:15:22;;;;;;;;;;;;;;;;;;5066066;28;20294;-55
2023/10/26 15:17:48;;;;;;;;;;;;;;;;;;5065997;28;19995;-56
2023/10/26 15:20:14;;;;;;;;;;;;;;;;;;5059291;28;19922;-56
2023/10/26 15:22:41;;;;;;;;;;;;;;;;;;5063146;28;19916;-54
2023/10/26 15:25:07;;;;;;;;;;;;;;;;;;5061263;28;19919;-56
2023/10/26 15:27:33;;;;;;;;;;;;;;;;;;5066995;28;19908;-56
2023/10/26 15:29:59;;;;;;;;;;;;;;;;;;5067458;28;19923;-56
2023/10/26 15:32:25;;;;;;;;;;;;;;;;;;5064041;28;20358;-56
2023/10/26 15:34:51;;;;;;;;;;;;;;;;;;5066886;28;19912;-55
2023/10/26 15:37:18;;;;;;;;;;;;;;;;;;5065340;28;19908;-56
2023/10/26 15:39:44;;;;;;;;;;;;;;;;;;5067513;28;19938;-56
2023/10/26 15:42:12;;;;;;;;;;;;;;;;;;5066941;28;19954;-56
2023/10/26 15:44:38;;;;;;;;;;;;;;;;;;5066594;28;19926;-55
2023/10/26 15:47:04;;;;;;;;;;;;;;;;;;5065076;28;20436;-55
2023/10/26 15:49:30;;;;;;;;;;;;;;;;;;5065769;28;19954;-55
2023/10/26 15:51:56;;;;;;;;;;;;;;;;;;5065220;28;19936;-55
2023/10/26 15:54:22;;;;;;;;;;;;;;;;;;5065146;28;20349;-55
2023/10/26 15:56:48;;;;;;;;;;;;;;;;;;5064973;28;20875;-56
2023/10/26 15:59:15;;;;;;;;;;;;;;;;;;5066849;28;19912;-56
2023/10/26 16:01:42;;;;;;;;;;;;;;;;;;5066452;28;19912;-54
2023/10/26 16:04:08;;;;;;;;;;;;;;;;;;5065773;28;19912;-54
2023/10/26 16:06:34;;;;;;;;;;;;;;;;;;5064108;28;20001;-54
2023/10/26 16:09:00;;;;;;;;;;;;;;;;;;5066198;28;19963;-54
2023/10/26 16:11:26;;;;;;;;;;;;;;;;;;5063911;28;19995;-54
2023/10/26 16:13:52;;;;;;;;;;;;;;;;;;5064740;28;19913;-54
2023/10/26 16:16:18;;;;;;;;;;;;;;;;;;5064502;28;19999;-54
2023/10/26 16:18:47;;;;;;;;;;;;;;;;;;5057257;28;19940;-54
2023/10/26 16:21:13;;;;;;;;;;;;;;;;;;5066327;28;20332;-54
2023/10/26 16:23:39;;;;;;;;;;;;;;;;;;5066868;28;20349;-54
2023/10/26 16:26:05;;;;;;;;;;;;;;;;;;5066133;28;19963;-54
2023/10/26 16:28:31;;;;;;;;;;;;;;;;;;5066826;28;19935;-54
2023/10/26 16:30:58;;;;;;;;;;;;;;;;;;5065597;28;20603;-54